Time;durP1;ratioP1;P1;durP2;ratioP2;P2;SDS_P1;SDS_P2;PMS_P1;PMS_P2;Temp;Humidity;BMP_temperature;BMP_pressure;BME280_temperature;BME280_humidity;BME280_pressure;Samples;Min_cycle;Max_cycle;Signal;HPM_P1;HPM_P2
2024/01/29 00:00:19;;;;;;;18.48;10.75;;;;;;;3.04;100.00;102473.72;5034803;28;20091;-43
2024/01/29 00:02:48;;;;;;;22.33;12.02;;;;;;;3.13;100.00;102469.38;5034846;28;20054;-43
2024/01/29 00:05:16;;;;;;;27.60;13.98;;;;;;;3.08;100.00;102459.69;5037433;28;20049;-43
2024/01/29 00:07:46;;;;;;;21.30;11.40;;;;;;;3.01;100.00;102455.25;5036572;28;20049;-42
2024/01/29 00:10:14;;;;;;;22.00;11.52;;;;;;;3.00;100.00;102456.13;5034729;28;20048;-43
2024/01/29 00:12:44;;;;;;;22.75;12.70;;;;;;;2.96;100.00;102449.94;5034474;28;20136;-42
2024/01/29 00:15:13;;;;;;;26.27;13.07;;;;;;;3.01;100.00;102448.22;5034515;28;20391;-43
2024/01/29 00:17:41;;;;;;;28.60;13.75;;;;;;;3.03;100.00;102448.25;5034338;28;20049;-44
2024/01/29 00:20:10;;;;;;;24.05;12.82;;;;;;;2.95;100.00;102447.31;5034678;28;20046;-44
2024/01/29 00:22:39;;;;;;;25.17;12.65;;;;;;;2.85;100.00;102441.97;5034408;28;20053;-44
2024/01/29 00:25:09;;;;;;;25.27;12.60;;;;;;;2.91;100.00;102451.69;5034344;28;20045;-43
2024/01/29 00:27:38;;;;;;;24.23;12.38;;;;;;;2.89;100.00;102448.13;5032881;28;20506;-44
2024/01/29 00:30:08;;;;;;;25.77;12.48;;;;;;;2.84;100.00;102450.75;5034160;28;20041;-43
2024/01/29 00:32:36;;;;;;;28.80;14.70;;;;;;;2.84;100.00;102452.50;5034340;28;20449;-43
2024/01/29 00:35:05;;;;;;;25.48;13.52;;;;;;;2.64;100.00;102449.75;5034193;28;20084;-43
2024/01/29 00:37:33;;;;;;;30.77;14.98;;;;;;;2.77;100.00;102454.22;5034128;28;20049;-45
2024/01/29 00:40:04;;;;;;;26.73;14.60;;;;;;;2.77;100.00;102453.34;5034238;28;20126;-43
2024/01/29 00:42:34;;;;;;;31.90;15.43;;;;;;;2.81;100.00;102456.03;5034446;28;20045;-50
2024/01/29 00:45:06;;;;;;;31.65;16.70;;;;;;;2.80;100.00;102456.00;5036196;28;20510;-44
2024/01/29 00:47:34;;;;;;;32.97;16.42;;;;;;;2.81;100.00;102470.94;5035300;28;20506;-43
2024/01/29 00:50:04;;;;;;;33.85;16.80;;;;;;;2.65;100.00;102475.22;5034309;28;20428;-43
2024/01/29 00:52:33;;;;;;;31.38;17.63;;;;;;;2.55;100.00;102483.91;5034738;28;20073;-43
2024/01/29 00:55:01;;;;;;;38.17;19.25;;;;;;;2.40;100.00;102494.31;5033971;28;20049;-44
2024/01/29 00:57:30;;;;;;;40.20;19.25;;;;;;;2.27;100.00;102504.72;5033764;28;20477;-45
2024/01/29 01:00:00;;;;;;;40.97;20.42;;;;;;;2.08;100.00;102496.63;5033817;28;20041;-46
2024/01/29 01:02:28;;;;;;;37.83;18.23;;;;;;;2.15;100.00;102495.84;5033695;28;20042;-44
2024/01/29 01:04:56;;;;;;;38.03;19.40;;;;;;;2.07;100.00;102494.88;5034163;28;20140;-44
2024/01/29 01:07:25;;;;;;;39.45;19.90;;;;;;;1.82;100.00;102502.47;5034327;28;20115;-43
2024/01/29 01:09:53;;;;;;;36.03;18.95;;;;;;;1.59;100.00;102504.84;5038842;28;20140;-54
2024/01/29 01:12:22;;;;;;;41.42;19.98;;;;;;;1.52;100.00;102499.47;5038155;28;20085;-44
2024/01/29 01:14:51;;;;;;;37.95;19.95;;;;;;;1.63;100.00;102504.00;5033651;28;20056;-42
2024/01/29 01:17:20;;;;;;;38.20;20.00;;;;;;;1.41;100.00;102509.88;5032317;28;20049;-45
2024/01/29 01:19:50;;;;;;;37.17;19.80;;;;;;;1.50;100.00;102504.72;5033283;28;20052;-44
2024/01/29 01:22:19;;;;;;;36.85;19.23;;;;;;;1.50;100.00;102506.47;5033963;28;20096;-42
2024/01/29 01:24:47;;;;;;;37.10;20.02;;;;;;;1.69;100.00;102506.72;5033053;28;20466;-43
2024/01/29 01:27:16;;;;;;;34.72;19.52;;;;;;;1.90;100.00;102497.31;5033479;28;20095;-43
2024/01/29 01:29:45;;;;;;;35.10;18.80;;;;;;;2.03;100.00;102483.44;5033164;28;20061;-44
2024/01/29 01:32:13;;;;;;;35.50;19.52;;;;;;;2.05;100.00;102481.69;5033153;28;20639;-43
2024/01/29 01:34:43;;;;;;;38.45;19.65;;;;;;;2.10;100.00;102490.50;5033004;28;20053;-44
2024/01/29 01:37:12;;;;;;;37.08;20.13;;;;;;;2.12;100.00;102487.88;5032813;28;20049;-45
2024/01/29 01:39:40;;;;;;;36.33;19.25;;;;;;;2.12;100.00;102488.78;5033050;28;20069;-43
2024/01/29 01:42:09;;;;;;;39.83;20.52;;;;;;;2.00;100.00;102493.91;5033112;28;20126;-44
2024/01/29 01:44:37;;;;;;;38.50;20.42;;;;;;;2.01;100.00;102490.41;5032577;28;20144;-43
2024/01/29 01:47:06;;;;;;;41.72;20.88;;;;;;;1.93;100.00;102486.81;5032927;28;20057;-44
2024/01/29 01:49:34;;;;;;;56.15;26.15;;;;;;;1.82;100.00;102483.19;5032830;28;20045;-45
2024/01/29 01:52:05;;;;;;;53.40;25.40;;;;;;;1.54;100.00;102487.22;5032595;28;20053;-45
2024/01/29 01:54:33;;;;;;;53.10;25.75;;;;;;;1.54;100.00;102489.84;5030512;28;20053;-43
2024/01/29 01:57:03;;;;;;;55.00;27.90;;;;;;;1.69;100.00;102483.06;5032770;28;20088;-42
2024/01/29 01:59:35;;;;;;;53.20;27.15;;;;;;;1.84;100.00;102487.63;5032569;28;20049;-45
2024/01/29 02:02:05;;;;;;;53.72;25.80;;;;;;;1.71;100.00;102488.31;5032456;28;20053;-43
2024/01/29 02:04:33;;;;;;;52.40;26.80;;;;;;;1.83;100.00;102491.09;5032797;28;20046;-44
2024/01/29 02:07:02;;;;;;;49.90;25.23;;;;;;;1.91;100.00;102480.66;5032549;28;20107;-44
2024/01/29 02:09:33;;;;;;;46.42;25.08;;;;;;;1.85;100.00;102486.75;5032368;28;20538;-44
2024/01/29 02:12:02;;;;;;;45.20;23.85;;;;;;;1.61;100.00;102479.44;5032281;28;20479;-45
2024/01/29 02:14:30;;;;;;;50.15;24.17;;;;;;;1.65;100.00;102481.25;5032295;28;20065;-43
2024/01/29 02:16:58;;;;;;;50.75;24.80;;;;;;;1.78;100.00;102484.03;5032253;28;20053;-47
2024/01/29 02:19:26;;;;;;;45.55;23.40;;;;;;;1.76;100.00;102485.75;5032795;28;20045;-43
2024/01/29 02:21:55;;;;;;;46.15;23.48;;;;;;;1.81;100.00;102490.19;5034393;28;20045;-45
2024/01/29 02:24:25;;;;;;;46.78;24.77;;;;;;;1.87;100.00;102486.75;5032585;28;20111;-42
2024/01/29 02:26:54;;;;;;;46.97;24.10;;;;;;;1.93;100.00;102485.09;5032207;28;20050;-44
2024/01/29 02:29:23;;;;;;;47.40;24.17;;;;;;;1.94;100.00;102483.34;5032003;28;20052;-43
2024/01/29 02:31:51;;;;;;;50.80;25.63;;;;;;;1.93;100.00;102481.53;5031752;28;20049;-45
2024/01/29 02:34:20;;;;;;;49.25;25.10;;;;;;;1.94;100.00;102467.56;5032113;28;20133;-44
2024/01/29 02:36:49;;;;;;;50.17;25.63;;;;;;;1.88;100.00;102467.47;5031683;28;20053;-43
2024/01/29 02:39:17;;;;;;;48.03;24.40;;;;;;;1.91;100.00;102459.59;5031907;28;20088;-42
2024/01/29 02:41:47;;;;;;;50.67;24.48;;;;;;;1.96;100.00;102460.53;5031670;28;20049;-43
2024/01/29 02:44:16;;;;;;;47.50;25.25;;;;;;;1.98;100.00;102458.81;5031296;28;20057;-43
2024/01/29 02:46:44;;;;;;;49.17;26.10;;;;;;;1.84;100.00;102455.16;5031779;28;20052;-43
2024/01/29 02:49:13;;;;;;;52.47;26.05;;;;;;;1.87;100.00;102455.19;5031683;28;20140;-44
2024/01/29 02:51:41;;;;;;;50.47;26.73;;;;;;;1.80;100.00;102458.59;5031748;28;20050;-43
2024/01/29 02:54:10;;;;;;;51.40;26.48;;;;;;;1.60;100.00;102461.00;5031611;28;20042;-42
2024/01/29 02:56:38;;;;;;;48.33;25.98;;;;;;;1.63;100.00;102463.66;5031757;28;20080;-43
2024/01/29 02:59:08;;;;;;;53.67;27.17;;;;;;;1.36;100.00;102462.50;5031369;28;20612;-44
2024/01/29 03:01:36;;;;;;;51.38;26.67;;;;;;;1.46;100.00;102459.97;5031643;28;20076;-43
2024/01/29 03:04:04;;;;;;;52.92;26.70;;;;;;;1.51;100.00;102460.91;5032315;28;20391;-45
2024/01/29 03:06:33;;;;;;;51.58;26.00;;;;;;;1.40;100.00;102468.66;5031848;28;20471;-43
2024/01/29 03:09:01;;;;;;;52.38;26.67;;;;;;;1.36;100.00;102477.38;5031388;28;20042;-43
2024/01/29 03:11:29;;;;;;;52.88;26.70;;;;;;;1.50;100.00;102470.53;5031525;28;20073;-44
2024/01/29 03:13:58;;;;;;;51.40;25.25;;;;;;;1.44;100.00;102476.59;5032046;28;20072;-42
2024/01/29 03:16:28;;;;;;;48.47;24.98;;;;;;;1.33;100.00;102482.59;5031668;28;20111;-43
2024/01/29 03:18:56;;;;;;;48.08;23.58;;;;;;;1.28;100.00;102479.03;5034672;28;20115;-44
2024/01/29 03:21:27;;;;;;;48.40;24.48;;;;;;;1.27;100.00;102477.25;5035534;28;20088;-44
2024/01/29 03:23:56;;;;;;;47.85;23.63;;;;;;;1.00;100.00;102485.63;5031222;28;20045;-42
2024/01/29 03:26:24;;;;;;;49.10;23.90;;;;;;;0.90;100.00;102475.84;5031119;28;20087;-44
2024/01/29 03:28:52;;;;;;;51.30;25.52;;;;;;;1.12;100.00;102481.44;5031293;28;20041;-43
2024/01/29 03:31:21;;;;;;;44.85;23.65;;;;;;;1.23;100.00;102488.59;5031233;28;20486;-44
2024/01/29 03:33:50;;;;;;;47.85;23.20;;;;;;;1.37;100.00;102485.28;5031142;28;20045;-43
2024/01/29 03:36:19;;;;;;;44.28;22.33;;;;;;;1.21;100.00;102490.31;5030840;28;20049;-43
2024/01/29 03:38:47;;;;;;;47.17;23.05;;;;;;;1.08;100.00;102482.25;5031050;28;20049;-43
2024/01/29 03:41:15;;;;;;;48.78;23.50;;;;;;;1.32;100.00;102480.81;5031259;28;20046;-44
2024/01/29 03:43:44;;;;;;;44.40;23.65;;;;;;;1.13;100.00;102477.94;5031019;28;20103;-44
2024/01/29 03:46:12;;;;;;;45.83;23.92;;;;;;;1.20;100.00;102470.16;5030857;28;20155;-43
2024/01/29 03:48:41;;;;;;;49.33;22.65;;;;;;;1.38;100.00;102466.00;5031336;28;20041;-43
2024/01/29 03:51:11;;;;;;;38.17;21.55;;;;;;;1.44;100.00;102467.81;5031106;28;20462;-43
2024/01/29 03:53:39;;;;;;;48.63;22.52;;;;;;;1.49;100.00;102463.50;5031202;28;20410;-43
2024/01/29 03:56:07;;;;;;;41.78;21.98;;;;;;;1.51;100.00;102469.66;5031152;28;20129;-42
2024/01/29 03:58:37;;;;;;;40.30;21.52;;;;;;;1.54;100.00;102474.97;5030991;28;20433;-43
2024/01/29 04:01:05;;;;;;;42.65;21.05;;;;;;;1.37;100.00;102469.50;5031299;28;20159;-43
2024/01/29 04:03:34;;;;;;;38.42;19.52;;;;;;;1.39;100.00;102472.16;5030977;28;20081;-44
2024/01/29 04:06:05;;;;;;;37.38;19.13;;;;;;;1.50;100.00;102482.81;5031272;28;20048;-44
2024/01/29 04:08:34;;;;;;;36.03;19.70;;;;;;;1.35;100.00;102480.84;5031501;28;20042;-44
2024/01/29 04:11:03;;;;;;;37.00;18.85;;;;;;;1.31;100.00;102473.78;5030915;28;20051;-42
2024/01/29 04:13:34;;;;;;;37.28;19.33;;;;;;;1.04;100.00;102472.53;5030954;28;20041;-43
2024/01/29 04:16:03;;;;;;;35.92;18.67;;;;;;;1.26;100.00;102478.13;5030792;28;20125;-43
2024/01/29 04:18:30;;;;;;;35.67;18.88;;;;;;;1.35;100.00;102475.59;5033939;28;20049;-44
2024/01/29 04:20:58;;;;;;;40.92;20.13;;;;;;;1.24;100.00;102472.81;5034587;28;20053;-43
2024/01/29 04:23:27;;;;;;;39.47;19.83;;;;;;;1.16;100.00;102466.59;5014478;28;20041;-45
2024/01/29 04:25:57;;;;;;;41.53;20.40;;;;;;;1.27;100.00;102477.25;5014526;28;20108;-44
2024/01/29 04:28:26;;;;;;;41.38;22.45;;;;;;;1.20;100.00;102480.66;5014558;28;20050;-45
2024/01/29 04:30:54;;;;;;;41.80;23.13;;;;;;;1.17;100.00;102480.63;5014369;28;20054;-44
2024/01/29 04:33:23;;;;;;;43.40;23.42;;;;;;;1.28;100.00;102473.78;5014567;28;20045;-43
2024/01/29 04:35:51;;;;;;;44.38;23.40;;;;;;;1.13;100.00;102480.56;5014403;28;20547;-43
2024/01/29 04:38:19;;;;;;;41.42;22.40;;;;;;;1.19;100.00;102473.66;5014434;28;20133;-44
2024/01/29 04:40:48;;;;;;;43.80;22.48;;;;;;;1.22;100.00;102484.19;5014334;28;20061;-44
2024/01/29 04:43:17;;;;;;;42.17;20.80;;;;;;;1.27;100.00;102483.41;5014060;28;20538;-44
2024/01/29 04:45:46;;;;;;;39.60;21.00;;;;;;;1.23;100.00;102485.94;5014640;28;20046;-44
2024/01/29 04:48:15;;;;;;;41.30;20.10;;;;;;;1.27;100.00;102493.03;5014318;28;20130;-44
2024/01/29 04:50:43;;;;;;;40.28;20.33;;;;;;;1.03;100.00;102494.44;5014360;28;20050;-44
2024/01/29 04:53:12;;;;;;;38.63;20.58;;;;;;;0.78;100.00;102492.31;5013941;28;20385;-43
2024/01/29 04:55:40;;;;;;;40.45;19.98;;;;;;;1.03;100.00;102499.69;5013997;28;20121;-43
2024/01/29 04:58:09;;;;;;;43.08;21.58;;;;;;;1.11;100.00;102491.94;5013833;28;20060;-42
2024/01/29 05:00:38;;;;;;;43.05;21.75;;;;;;;1.12;100.00;102491.94;5014175;28;20046;-43
2024/01/29 05:03:07;;;;;;;40.28;23.17;;;;;;;1.07;100.00;102495.38;5013992;28;20115;-43
2024/01/29 05:05:35;;;;;;;42.85;21.92;;;;;;;1.05;100.00;102497.09;5013827;28;20499;-45
2024/01/29 05:08:04;;;;;;;42.92;22.77;;;;;;;1.11;100.00;102494.56;5013565;28;20041;-43
2024/01/29 05:10:32;;;;;;;40.05;22.00;;;;;;;1.00;100.00;102499.66;5013513;28;20049;-43
2024/01/29 05:13:02;;;;;;;39.25;20.55;;;;;;;0.88;100.00;102502.13;5013637;28;20056;-42
2024/01/29 05:15:34;;;;;;;40.83;20.23;;;;;;;0.93;100.00;102507.41;5013769;28;20104;-44
2024/01/29 05:18:04;;;;;;;40.03;20.85;;;;;;;0.92;100.00;102509.16;5013699;28;20049;-43
2024/01/29 05:20:33;;;;;;;36.38;20.02;;;;;;;0.95;100.00;102517.09;5014327;28;20049;-43
2024/01/29 05:23:02;;;;;;;37.95;20.60;;;;;;;0.94;100.00;102510.06;5013712;28;20060;-41
2024/01/29 05:25:32;;;;;;;42.17;20.80;;;;;;;0.78;100.00;102508.09;5013535;28;20068;-43
2024/01/29 05:28:01;;;;;;;39.28;20.73;;;;;;;1.00;100.00;102507.53;5013116;28;20045;-43
2024/01/29 05:30:29;;;;;;;43.47;22.15;;;;;;;1.05;100.00;102512.84;5013267;28;20046;-42
2024/01/29 05:32:58;;;;;;;41.05;21.45;;;;;;;1.16;100.00;102498.16;5014539;28;20533;-43
2024/01/29 05:35:28;;;;;;;34.17;18.73;;;;;;;1.12;100.00;102499.84;5013544;28;20046;-43
2024/01/29 05:37:56;;;;;;;38.88;19.40;;;;;;;1.18;100.00;102490.28;5012962;28;20411;-42
2024/01/29 05:40:24;;;;;;;34.92;19.40;;;;;;;1.18;100.00;102491.16;5013426;28;20054;-43
2024/01/29 05:42:53;;;;;;;36.22;19.85;;;;;;;1.19;100.00;102484.16;5012913;28;20535;-44
2024/01/29 05:45:22;;;;;;;39.05;20.38;;;;;;;1.22;100.00;102484.19;5013254;28;20041;-44
2024/01/29 05:47:51;;;;;;;43.17;20.88;;;;;;;1.24;100.00;102485.09;5014505;28;20475;-43
2024/01/29 05:50:19;;;;;;;41.15;21.45;;;;;;;1.18;100.00;102493.78;5015473;28;20191;-49
2024/01/29 05:52:49;;;;;;;39.78;21.40;;;;;;;1.20;100.00;102497.31;5015816;28;20660;-43
2024/01/29 05:55:18;;;;;;;39.70;19.35;;;;;;;1.22;100.00;102499.97;5014838;28;20050;-44
2024/01/29 05:57:49;;;;;;;36.30;19.23;;;;;;;1.25;100.00;102494.72;5012805;28;20475;-42
2024/01/29 06:00:18;;;;;;;33.53;18.83;;;;;;;1.31;100.00;102489.56;5012696;28;20517;-43
2024/01/29 06:02:48;;;;;;;38.00;19.88;;;;;;;1.30;100.00;102490.44;5012659;28;20050;-42
2024/01/29 06:05:16;;;;;;;32.92;17.77;;;;;;;1.15;100.00;102489.34;5012633;28;20053;-43
2024/01/29 06:07:45;;;;;;;35.28;19.05;;;;;;;1.03;100.00;102498.81;5012786;28;20435;-43
2024/01/29 06:10:15;;;;;;;37.10;19.38;;;;;;;1.03;100.00;102499.69;5012470;28;20046;-44
2024/01/29 06:12:44;;;;;;;35.35;19.38;;;;;;;1.07;100.00;102501.53;5012413;28;20467;-44
2024/01/29 06:15:12;;;;;;;33.35;17.13;;;;;;;1.11;100.00;102498.06;5012494;28;20054;-44
2024/01/29 06:17:41;;;;;;;37.55;18.95;;;;;;;1.12;100.00;102498.94;5012755;28;20272;-44
2024/01/29 06:20:12;;;;;;;35.78;18.50;;;;;;;1.20;100.00;102499.94;5012277;28;20046;-44
2024/01/29 06:22:46;;;;;;;34.67;17.95;;;;;;;1.07;100.00;102506.78;5012128;28;20054;-43
2024/01/29 06:25:19;;;;;;;35.35;19.02;;;;;;;1.21;100.00;102506.09;5012013;28;20092;-44
2024/01/29 06:27:48;;;;;;;34.58;18.83;;;;;;;1.26;100.00;102514.94;5011979;28;20107;-45
2024/01/29 06:30:17;;;;;;;36.42;18.98;;;;;;;1.13;100.00;102514.75;5012475;28;20049;-43
2024/01/29 06:32:46;;;;;;;33.85;19.15;;;;;;;1.08;100.00;102521.69;5011818;28;20053;-43
2024/01/29 06:35:15;;;;;;;34.65;19.48;;;;;;;1.20;100.00;102520.09;5012220;28;20053;-44
2024/01/29 06:37:43;;;;;;;37.55;20.80;;;;;;;1.04;100.00;102511.09;5011951;28;20052;-43
2024/01/29 06:40:12;;;;;;;40.08;20.92;;;;;;;1.18;100.00;102513.94;5011275;28;20065;-43
2024/01/29 06:42:42;;;;;;;39.60;20.75;;;;;;;1.19;100.00;102513.06;5011533;28;20052;-44
2024/01/29 06:45:11;;;;;;;40.47;22.08;;;;;;;1.24;100.00;102520.16;5011778;28;20587;-43
2024/01/29 06:47:39;;;;;;;37.33;20.90;;;;;;;1.17;100.00;102514.81;5011847;28;20057;-43
2024/01/29 06:50:08;;;;;;;39.70;21.23;;;;;;;1.17;100.00;102527.94;5011666;28;20145;-43
2024/01/29 06:52:37;;;;;;;40.63;21.83;;;;;;;1.27;100.00;102521.97;5011658;28;20046;-43
2024/01/29 06:55:06;;;;;;;41.92;21.90;;;;;;;1.10;100.00;102516.44;5011735;28;20196;-43
2024/01/29 06:57:35;;;;;;;38.25;21.92;;;;;;;1.23;100.00;102521.00;5011506;28;20622;-44
2024/01/29 07:00:06;;;;;;;45.58;23.42;;;;;;;1.31;100.00;102521.13;5011553;28;20054;-45
2024/01/29 07:02:35;;;;;;;42.47;23.38;;;;;;;1.38;100.00;102520.34;5011661;28;20108;-43
2024/01/29 07:05:04;;;;;;;40.03;21.65;;;;;;;1.27;100.00;102528.09;5011494;28;20365;-41
2024/01/29 07:07:33;;;;;;;44.58;21.83;;;;;;;1.22;100.00;102536.78;5011288;28;20045;-42
2024/01/29 07:10:01;;;;;;;39.63;21.50;;;;;;;1.48;100.00;102540.66;5011556;28;20341;-42
2024/01/29 07:12:29;;;;;;;41.38;22.40;;;;;;;1.50;100.00;102541.56;5011217;28;20049;-43
2024/01/29 07:14:58;;;;;;;44.38;23.15;;;;;;;1.28;100.00;102547.38;5011609;28;20069;-42
2024/01/29 07:17:30;;;;;;;43.33;23.42;;;;;;;1.16;100.00;102550.72;5011341;28;20046;-43
2024/01/29 07:19:58;;;;;;;45.58;24.50;;;;;;;0.89;100.00;102547.66;5011244;28;20086;-43
2024/01/29 07:22:27;;;;;;;47.47;25.42;;;;;;;0.81;100.00;102555.41;5011362;28;20363;-44
2024/01/29 07:24:56;;;;;;;49.88;24.08;;;;;;;0.78;100.00;102556.25;5011556;28;20450;-42
2024/01/29 07:27:24;;;;;;;46.83;25.08;;;;;;;0.68;100.00;102561.34;5011110;28;20096;-43
2024/01/29 07:29:52;;;;;;;46.53;24.73;;;;;;;0.69;100.00;102560.47;5011275;28;20133;-43
2024/01/29 07:32:21;;;;;;;46.05;23.77;;;;;;;0.90;100.00;102559.94;5011028;28;20132;-43
2024/01/29 07:34:50;;;;;;;49.15;25.00;;;;;;;0.96;100.00;102555.66;5011380;28;20131;-43
2024/01/29 07:37:20;;;;;;;46.30;23.27;;;;;;;1.13;100.00;102554.16;5011448;28;20153;-41
2024/01/29 07:39:49;;;;;;;42.92;23.77;;;;;;;1.30;100.00;102554.44;5010940;28;20140;-43
2024/01/29 07:42:17;;;;;;;52.45;24.58;;;;;;;1.51;100.00;102553.84;5011233;28;20054;-43
2024/01/29 07:44:45;;;;;;;44.13;23.40;;;;;;;1.63;100.00;102559.25;5010988;28;20054;-42
2024/01/29 07:47:14;;;;;;;43.00;22.80;;;;;;;1.63;100.00;102555.75;5011105;28;20089;-42
2024/01/29 07:49:47;;;;;;;40.28;22.70;;;;;;;1.72;100.00;102551.50;5011049;28;20065;-43
2024/01/29 07:52:17;;;;;;;40.33;22.20;;;;;;;1.81;100.00;102561.25;5012466;28;20078;-42
2024/01/29 07:54:45;;;;;;;35.67;22.17;;;;;;;1.94;100.00;102555.28;5014743;28;20124;-42
2024/01/29 07:57:14;;;;;;;40.25;22.30;;;;;;;2.10;100.00;102552.81;5014691;28;20145;-41
2024/01/29 07:59:42;;;;;;;39.17;22.17;;;;;;;2.22;100.00;102543.31;5014595;28;20141;-43
2024/01/29 08:02:10;;;;;;;38.22;21.98;;;;;;;2.35;100.00;102538.19;5014963;28;20656;-46
2024/01/29 08:04:39;;;;;;;41.50;21.98;;;;;;;2.15;100.00;102545.88;5014758;28;20042;-43
2024/01/29 08:07:07;;;;;;;37.67;21.65;;;;;;;2.41;100.00;102538.22;5014728;28;20068;-43
2024/01/29 08:09:37;;;;;;;36.20;21.17;;;;;;;2.59;100.00;102530.47;5014752;28;20046;-44
2024/01/29 08:12:06;;;;;;;34.97;20.45;;;;;;;2.63;100.00;102523.50;5014776;28;20053;-43
2024/01/29 08:14:38;;;;;;;33.97;18.95;;;;;;;2.75;100.00;102524.47;5014192;28;20045;-43
2024/01/29 08:17:08;;;;;;;38.25;19.48;;;;;;;2.92;100.00;102523.75;5014596;28;20048;-44
2024/01/29 08:19:36;;;;;;;32.75;18.85;;;;;;;2.99;100.00;102528.16;5014108;28;20046;-42
2024/01/29 08:22:05;;;;;;;39.80;20.77;;;;;;;3.04;100.00;102522.06;4997119;28;20407;-43
2024/01/29 08:24:33;;;;;;;36.83;21.63;;;;;;;3.13;100.00;102531.81;5014347;28;20128;-45
2024/01/29 08:27:03;;;;;;;42.97;23.33;;;;;;;3.25;100.00;102529.22;5013801;28;20050;-42
2024/01/29 08:29:32;;;;;;;44.90;22.95;;;;;;;2.84;100.00;102523.69;5013838;28;20108;-42
2024/01/29 08:32:00;;;;;;;37.10;20.23;;;;;;;3.00;100.00;102529.97;5014193;28;20058;-42
2024/01/29 08:34:31;;;;;;;36.22;20.30;;;;;;;3.06;100.00;102529.97;5014119;28;20053;-44
2024/01/29 08:37:00;;;;;;;39.28;21.08;;;;;;;3.18;100.00;102532.69;5014093;28;20053;-44
2024/01/29 08:39:28;;;;;;;36.97;20.38;;;;;;;3.30;100.00;102538.06;5032273;28;20499;-44
2024/01/29 08:41:56;;;;;;;35.17;18.73;;;;;;;3.14;100.00;102536.19;5033685;28;20084;-43
2024/01/29 08:44:26;;;;;;;35.08;20.13;;;;;;;3.35;100.00;102544.25;5033358;28;20060;-43
2024/01/29 08:46:56;;;;;;;37.38;19.35;;;;;;;3.44;100.00;102549.56;5033425;28;20064;-44
2024/01/29 08:49:25;;;;;;;29.25;18.15;;;;;;;3.56;100.00;102547.88;5033491;28;20515;-50
2024/01/29 08:51:53;;;;;;;38.35;19.40;;;;;;;3.37;100.00;102547.75;5033574;28;20076;-43
2024/01/29 08:54:22;;;;;;;35.47;19.83;;;;;;;3.38;100.00;102549.56;5033764;28;20203;-44
2024/01/29 08:56:50;;;;;;;35.28;19.23;;;;;;;3.52;100.00;102541.72;5033400;28;20052;-46
2024/01/29 08:59:20;;;;;;;34.63;18.75;;;;;;;3.64;100.00;102541.75;5032851;28;20057;-43
2024/01/29 09:01:50;;;;;;;34.22;19.02;;;;;;;3.72;100.00;102549.72;5033033;28;20077;-44
2024/01/29 09:04:19;;;;;;;33.25;18.98;;;;;;;3.83;100.00;102542.72;5032161;28;20053;-43
2024/01/29 09:06:48;;;;;;;30.10;18.88;;;;;;;3.95;100.00;102548.03;5032733;28;20053;-44
2024/01/29 09:09:17;;;;;;;35.17;19.30;;;;;;;4.16;100.00;102546.38;5032709;28;20085;-44
2024/01/29 09:11:45;;;;;;;35.95;18.50;;;;;;;4.31;100.00;102543.75;5032829;28;20041;-44
2024/01/29 09:14:14;;;;;;;33.17;18.08;;;;;;;4.47;100.00;102548.19;5032546;28;20132;-42
2024/01/29 09:16:42;;;;;;;32.30;18.15;;;;;;;4.41;100.00;102547.28;5032696;28;20046;-43
2024/01/29 09:19:13;;;;;;;32.92;17.55;;;;;;;4.44;100.00;102550.84;5032503;28;20041;-43
2024/01/29 09:21:48;;;;;;;30.27;17.42;;;;;;;4.23;100.00;102556.94;5032604;28;20111;-43
2024/01/29 09:24:17;;;;;;;31.60;18.13;;;;;;;4.22;100.00;102559.56;5033024;28;20061;-44
2024/01/29 09:26:46;;;;;;;29.67;17.27;;;;;;;4.22;100.00;102551.66;5032589;28;20124;-44
2024/01/29 09:29:14;;;;;;;28.52;16.90;;;;;;;4.34;100.00;102554.31;5032273;28;20575;-44
2024/01/29 09:31:43;;;;;;;28.35;15.85;;;;;;;4.48;100.00;102546.44;5032213;28;20199;-46
2024/01/29 09:34:13;;;;;;;30.52;16.73;;;;;;;4.53;100.00;102552.59;5032365;28;20041;-44
2024/01/29 09:36:42;;;;;;;29.42;15.85;;;;;;;4.43;100.00;102550.81;5032408;28;20125;-43
2024/01/29 09:39:10;;;;;;;29.33;15.80;;;;;;;4.60;100.00;102552.59;5032355;28;20046;-44
2024/01/29 09:41:39;;;;;;;30.00;14.70;;;;;;;4.67;100.00;102555.25;5032104;28;20041;-44
2024/01/29 09:44:09;;;;;;;25.83;14.20;;;;;;;4.75;100.00;102554.41;5048773;28;20141;-43
2024/01/29 09:46:40;;;;;;;24.10;13.82;;;;;;;4.99;100.00;102553.50;5052044;28;20045;-43
2024/01/29 09:49:09;;;;;;;22.77;13.27;;;;;;;4.88;100.00;102549.97;5051931;28;20056;-46
2024/01/29 09:51:40;;;;;;;23.52;13.13;;;;;;;5.05;100.00;102542.03;5052234;28;20128;-44
2024/01/29 09:54:11;;;;;;;23.67;13.05;;;;;;;5.03;100.00;102546.47;5052201;28;20068;-44
2024/01/29 09:56:39;;;;;;;21.15;11.52;;;;;;;5.01;100.00;102534.97;5053633;28;20041;-42
2024/01/29 09:59:07;;;;;;;25.88;12.80;;;;;;;5.30;100.00;102535.81;5051838;28;20155;-42
2024/01/29 10:01:37;;;;;;;22.20;12.25;;;;;;;5.49;100.00;102539.28;5052143;28;20544;-44
2024/01/29 10:04:06;;;;;;;19.83;12.68;;;;;;;5.58;100.00;102533.97;5051966;28;20056;-42
2024/01/29 10:06:34;;;;;;;23.92;13.05;;;;;;;5.62;100.00;102533.09;5051755;28;20483;-44
2024/01/29 10:09:05;;;;;;;24.13;12.73;;;;;;;5.78;100.00;102535.66;5051864;28;20044;-45
2024/01/29 10:11:33;;;;;;;25.70;12.00;;;;;;;5.62;100.00;102525.16;5051432;28;20049;-45
2024/01/29 10:14:02;;;;;;;18.45;10.65;;;;;;;5.60;100.00;102531.34;5051134;28;20118;-47
2024/01/29 10:16:31;;;;;;;21.35;11.55;;;;;;;5.87;100.00;102525.03;5051279;28;20136;-46
2024/01/29 10:19:00;;;;;;;21.55;10.88;;;;;;;6.04;100.00;102517.91;5051880;28;20045;-44
2024/01/29 10:21:37;;;;;;;20.73;10.20;;;;;;;6.15;99.44;102518.72;5051399;28;20091;-43
2024/01/29 10:24:13;;;;;;;17.50;10.15;;;;;;;6.20;99.73;102513.44;5051294;28;20073;-44
2024/01/29 10:26:41;;;;;;;18.23;10.30;;;;;;;6.23;99.04;102521.34;5051202;28;20133;-43
2024/01/29 10:29:11;;;;;;;19.95;11.10;;;;;;;6.33;99.29;102525.69;5050842;28;20063;-45
2024/01/29 10:31:41;;;;;;;18.55;11.20;;;;;;;6.36;98.62;102519.47;5051256;28;20414;-43
2024/01/29 10:34:09;;;;;;;21.95;9.80;;;;;;;6.40;99.11;102524.78;5051057;28;20053;-42
2024/01/29 10:36:40;;;;;;;16.20;9.80;;;;;;;6.37;97.33;102514.19;5050844;28;20057;-42
2024/01/29 10:39:13;;;;;;;17.48;9.68;;;;;;;6.36;96.80;102524.78;5051752;28;20049;-45
2024/01/29 10:41:44;;;;;;;17.50;9.40;;;;;;;6.34;96.68;102513.31;5051200;28;20049;-43
2024/01/29 10:44:17;;;;;;;16.27;9.88;;;;;;;6.35;96.80;102507.13;5050968;28;20127;-44
2024/01/29 10:46:48;;;;;;;14.95;9.63;;;;;;;6.50;96.85;102507.03;5050337;28;20114;-44
2024/01/29 10:49:16;;;;;;;17.02;9.80;;;;;;;6.46;95.41;102502.63;5050847;28;20055;-44
2024/01/29 10:51:46;;;;;;;17.15;9.73;;;;;;;6.46;96.02;102495.53;5052726;28;20053;-44
2024/01/29 10:54:17;;;;;;;19.27;10.52;;;;;;;6.51;95.58;102504.38;5050874;28;20082;-44
2024/01/29 10:56:45;;;;;;;16.20;9.60;;;;;;;6.62;95.08;102496.31;5050655;28;20055;-44
2024/01/29 10:59:15;;;;;;;16.27;9.35;;;;;;;6.56;94.75;102497.28;5052325;28;20047;-43
2024/01/29 11:01:45;;;;;;;16.95;8.60;;;;;;;6.55;94.42;102489.28;5052276;28;20067;-43
2024/01/29 11:04:25;;;;;;;19.67;8.98;;;;;;;6.61;95.14;102478.66;5052311;28;20071;-42
2024/01/29 11:07:01;;;;;;;15.90;8.45;;;;;;;6.62;94.36;102477.75;5052035;28;20208;-43
2024/01/29 11:09:32;;;;;;;15.30;8.82;;;;;;;6.63;94.22;102471.56;5051128;28;20143;-45
2024/01/29 11:12:02;;;;;;;18.00;9.50;;;;;;;6.61;93.70;102473.34;5050870;28;20053;-43
2024/01/29 11:14:30;;;;;;;17.88;9.98;;;;;;;6.83;93.66;102469.59;5050445;28;20102;-42
2024/01/29 11:16:59;;;;;;;17.95;10.00;;;;;;;6.80;93.01;102469.63;5050442;28;20159;-42